sensor_id;sensor_type;location;lat;lon;timestamp;P1;durP1;ratioP1;P2;durP2;ratioP2
55756;SDS011;41676;44.610;44.078;2024-03-07T00:01:46;38.88;;;18.55;;
55756;SDS011;41676;44.610;44.078;2024-03-07T00:06:47;39.30;;;15.40;;
55756;SDS011;41676;44.610;44.078;2024-03-07T00:11:48;35.30;;;15.63;;
55756;SDS011;41676;44.610;44.078;2024-03-07T00:16:49;36.13;;;17.83;;
55756;SDS011;41676;44.610;44.078;2024-03-07T00:21:50;48.83;;;18.90;;
55756;SDS011;41676;44.610;44.078;2024-03-07T00:26:51;38.25;;;16.23;;
55756;SDS011;41676;44.610;44.078;2024-03-07T00:31:51;46.63;;;15.30;;
55756;SDS011;41676;44.610;44.078;2024-03-07T00:36:52;36.20;;;16.40;;
55756;SDS011;41676;44.610;44.078;2024-03-07T00:41:53;35.70;;;15.85;;
55756;SDS011;41676;44.610;44.078;2024-03-07T00:46:54;40.70;;;15.55;;
55756;SDS011;41676;44.610;44.078;2024-03-07T00:51:55;40.67;;;15.48;;
55756;SDS011;41676;44.610;44.078;2024-03-07T00:56:56;43.00;;;17.88;;
55756;SDS011;41676;44.610;44.078;2024-03-07T01:01:56;38.78;;;16.20;;
55756;SDS011;41676;44.610;44.078;2024-03-07T01:06:57;38.58;;;18.70;;
55756;SDS011;41676;44.610;44.078;2024-03-07T01:11:58;39.25;;;16.92;;
55756;SDS011;41676;44.610;44.078;2024-03-07T01:16:59;39.53;;;16.33;;
55756;SDS011;41676;44.610;44.078;2024-03-07T01:22:00;35.67;;;15.07;;
55756;SDS011;41676;44.610;44.078;2024-03-07T01:27:01;37.03;;;18.35;;
55756;SDS011;41676;44.610;44.078;2024-03-07T01:32:02;47.88;;;18.40;;
55756;SDS011;41676;44.610;44.078;2024-03-07T01:37:03;44.22;;;18.13;;
55756;SDS011;41676;44.610;44.078;2024-03-07T01:42:04;34.88;;;15.68;;
55756;SDS011;41676;44.610;44.078;2024-03-07T01:47:05;35.17;;;16.20;;
55756;SDS011;41676;44.610;44.078;2024-03-07T01:52:06;26.55;;;14.05;;
55756;SDS011;41676;44.610;44.078;2024-03-07T01:57:08;29.63;;;14.55;;
55756;SDS011;41676;44.610;44.078;2024-03-07T02:02:09;29.70;;;13.52;;
55756;SDS011;41676;44.610;44.078;2024-03-07T02:07:10;32.60;;;15.02;;
55756;SDS011;41676;44.610;44.078;2024-03-07T02:12:13;30.88;;;14.02;;
55756;SDS011;41676;44.610;44.078;2024-03-07T02:17:14;35.33;;;13.27;;
55756;SDS011;41676;44.610;44.078;2024-03-07T02:22:16;32.15;;;13.90;;
55756;SDS011;41676;44.610;44.078;2024-03-07T02:27:17;37.38;;;12.95;;
55756;SDS011;41676;44.610;44.078;2024-03-07T02:32:18;29.02;;;14.60;;
55756;SDS011;41676;44.610;44.078;2024-03-07T02:37:18;31.50;;;13.82;;
55756;SDS011;41676;44.610;44.078;2024-03-07T02:42:19;46.03;;;16.00;;
55756;SDS011;41676;44.610;44.078;2024-03-07T02:47:20;48.10;;;15.45;;
55756;SDS011;41676;44.610;44.078;2024-03-07T02:52:23;37.95;;;14.90;;
55756;SDS011;41676;44.610;44.078;2024-03-07T02:57:24;25.38;;;15.10;;
55756;SDS011;41676;44.610;44.078;2024-03-07T03:02:25;30.60;;;13.40;;
55756;SDS011;41676;44.610;44.078;2024-03-07T03:07:26;38.10;;;14.25;;
55756;SDS011;41676;44.610;44.078;2024-03-07T03:12:27;27.00;;;13.77;;
55756;SDS011;41676;44.610;44.078;2024-03-07T03:17:28;38.90;;;14.68;;
55756;SDS011;41676;44.610;44.078;2024-03-07T03:22:29;47.22;;;14.50;;
55756;SDS011;41676;44.610;44.078;2024-03-07T03:27:30;58.30;;;15.35;;
55756;SDS011;41676;44.610;44.078;2024-03-07T03:32:32;27.83;;;14.52;;
55756;SDS011;41676;44.610;44.078;2024-03-07T03:37:33;53.15;;;16.83;;
55756;SDS011;41676;44.610;44.078;2024-03-07T03:42:34;62.25;;;17.58;;
55756;SDS011;41676;44.610;44.078;2024-03-07T03:47:35;73.70;;;19.10;;
55756;SDS011;41676;44.610;44.078;2024-03-07T03:52:36;56.13;;;18.10;;
55756;SDS011;41676;44.610;44.078;2024-03-07T03:57:39;38.03;;;14.52;;
55756;SDS011;41676;44.610;44.078;2024-03-07T04:02:44;61.88;;;19.33;;
55756;SDS011;41676;44.610;44.078;2024-03-07T04:07:48;65.13;;;18.63;;
55756;SDS011;41676;44.610;44.078;2024-03-07T04:12:49;51.08;;;20.75;;
55756;SDS011;41676;44.610;44.078;2024-03-07T04:17:49;55.33;;;19.50;;
55756;SDS011;41676;44.610;44.078;2024-03-07T04:22:50;68.97;;;21.25;;
55756;SDS011;41676;44.610;44.078;2024-03-07T04:27:51;53.33;;;20.25;;
55756;SDS011;41676;44.610;44.078;2024-03-07T04:32:52;48.03;;;20.48;;
55756;SDS011;41676;44.610;44.078;2024-03-07T04:37:52;50.65;;;21.45;;
55756;SDS011;41676;44.610;44.078;2024-03-07T04:42:53;38.25;;;18.55;;
55756;SDS011;41676;44.610;44.078;2024-03-07T04:47:54;44.97;;;19.95;;
55756;SDS011;41676;44.610;44.078;2024-03-07T04:52:55;46.67;;;20.92;;
55756;SDS011;41676;44.610;44.078;2024-03-07T04:57:55;37.00;;;19.00;;
55756;SDS011;41676;44.610;44.078;2024-03-07T05:02:57;36.78;;;18.13;;
55756;SDS011;41676;44.610;44.078;2024-03-07T05:07:57;34.63;;;17.98;;
55756;SDS011;41676;44.610;44.078;2024-03-07T05:12:58;41.70;;;18.35;;
55756;SDS011;41676;44.610;44.078;2024-03-07T05:17:59;40.13;;;18.85;;
55756;SDS011;41676;44.610;44.078;2024-03-07T05:23:01;37.67;;;18.70;;
55756;SDS011;41676;44.610;44.078;2024-03-07T05:28:05;44.50;;;19.95;;
55756;SDS011;41676;44.610;44.078;2024-03-07T05:33:06;47.55;;;20.17;;
55756;SDS011;41676;44.610;44.078;2024-03-07T05:38:07;35.58;;;15.65;;
55756;SDS011;41676;44.610;44.078;2024-03-07T05:43:08;40.17;;;19.77;;
55756;SDS011;41676;44.610;44.078;2024-03-07T05:48:14;32.45;;;18.45;;
55756;SDS011;41676;44.610;44.078;2024-03-07T05:53:18;30.98;;;17.90;;
55756;SDS011;41676;44.610;44.078;2024-03-07T05:58:19;27.83;;;16.33;;
55756;SDS011;41676;44.610;44.078;2024-03-07T06:03:20;32.50;;;16.70;;
55756;SDS011;41676;44.610;44.078;2024-03-07T06:08:21;27.25;;;14.32;;
55756;SDS011;41676;44.610;44.078;2024-03-07T06:13:22;21.98;;;14.18;;
55756;SDS011;41676;44.610;44.078;2024-03-07T06:18:23;21.90;;;12.70;;
55756;SDS011;41676;44.610;44.078;2024-03-07T06:23:23;26.60;;;13.32;;
55756;SDS011;41676;44.610;44.078;2024-03-07T06:28:24;20.30;;;13.15;;
55756;SDS011;41676;44.610;44.078;2024-03-07T06:33:25;22.55;;;12.52;;
55756;SDS011;41676;44.610;44.078;2024-03-07T06:38:27;21.25;;;12.82;;
55756;SDS011;41676;44.610;44.078;2024-03-07T06:43:27;21.85;;;13.40;;
55756;SDS011;41676;44.610;44.078;2024-03-07T06:48:29;19.13;;;12.45;;
55756;SDS011;41676;44.610;44.078;2024-03-07T06:53:30;18.90;;;10.85;;
55756;SDS011;41676;44.610;44.078;2024-03-07T06:58:31;19.65;;;11.00;;
55756;SDS011;41676;44.610;44.078;2024-03-07T07:03:32;21.05;;;13.80;;
55756;SDS011;41676;44.610;44.078;2024-03-07T07:08:33;25.30;;;14.32;;
55756;SDS011;41676;44.610;44.078;2024-03-07T07:38:41;43.90;;;23.02;;
55756;SDS011;41676;44.610;44.078;2024-03-07T07:43:42;54.83;;;27.02;;
55756;SDS011;41676;44.610;44.078;2024-03-07T07:48:43;47.05;;;25.08;;
55756;SDS011;41676;44.610;44.078;2024-03-07T07:53:44;31.95;;;20.10;;
55756;SDS011;41676;44.610;44.078;2024-03-07T07:58:45;39.03;;;24.35;;
55756;SDS011;41676;44.610;44.078;2024-03-07T08:03:46;28.70;;;20.30;;
55756;SDS011;41676;44.610;44.078;2024-03-07T08:08:47;39.67;;;26.40;;
55756;SDS011;41676;44.610;44.078;2024-03-07T08:13:47;32.47;;;23.73;;
55756;SDS011;41676;44.610;44.078;2024-03-07T08:18:50;34.10;;;25.05;;
55756;SDS011;41676;44.610;44.078;2024-03-07T08:23:51;40.97;;;26.73;;
55756;SDS011;41676;44.610;44.078;2024-03-07T08:28:52;37.70;;;25.77;;
55756;SDS011;41676;44.610;44.078;2024-03-07T08:33:53;32.97;;;26.08;;
55756;SDS011;41676;44.610;44.078;2024-03-07T08:38:54;34.72;;;23.83;;
55756;SDS011;41676;44.610;44.078;2024-03-07T08:43:54;45.85;;;31.13;;
55756;SDS011;41676;44.610;44.078;2024-03-07T08:48:56;40.42;;;31.27;;
55756;SDS011;41676;44.610;44.078;2024-03-07T08:53:57;46.05;;;33.08;;
55756;SDS011;41676;44.610;44.078;2024-03-07T08:58:58;51.78;;;40.90;;
55756;SDS011;41676;44.610;44.078;2024-03-07T09:03:58;54.35;;;42.28;;
55756;SDS011;41676;44.610;44.078;2024-03-07T09:08:59;59.60;;;47.17;;
55756;SDS011;41676;44.610;44.078;2024-03-07T09:14:00;51.05;;;38.65;;
55756;SDS011;41676;44.610;44.078;2024-03-07T09:19:01;49.25;;;39.60;;
55756;SDS011;41676;44.610;44.078;2024-03-07T09:24:01;48.30;;;37.97;;
55756;SDS011;41676;44.610;44.078;2024-03-07T09:29:03;56.10;;;39.53;;
55756;SDS011;41676;44.610;44.078;2024-03-07T09:34:06;55.70;;;42.63;;
55756;SDS011;41676;44.610;44.078;2024-03-07T09:39:07;52.47;;;42.92;;
55756;SDS011;41676;44.610;44.078;2024-03-07T09:44:09;48.50;;;38.20;;
55756;SDS011;41676;44.610;44.078;2024-03-07T09:49:12;48.07;;;38.03;;
55756;SDS011;41676;44.610;44.078;2024-03-07T09:54:14;42.05;;;32.28;;
55756;SDS011;41676;44.610;44.078;2024-03-07T09:59:15;44.80;;;31.95;;
55756;SDS011;41676;44.610;44.078;2024-03-07T10:04:25;40.78;;;29.20;;
55756;SDS011;41676;44.610;44.078;2024-03-07T10:09:31;38.83;;;27.33;;
55756;SDS011;41676;44.610;44.078;2024-03-07T10:14:36;43.75;;;28.00;;
55756;SDS011;41676;44.610;44.078;2024-03-07T10:19:40;37.22;;;27.30;;
55756;SDS011;41676;44.610;44.078;2024-03-07T10:24:49;32.75;;;24.75;;
55756;SDS011;41676;44.610;44.078;2024-03-07T10:29:53;32.35;;;24.50;;
55756;SDS011;41676;44.610;44.078;2024-03-07T10:34:55;30.75;;;21.60;;
55756;SDS011;41676;44.610;44.078;2024-03-07T10:39:55;31.25;;;21.13;;
55756;SDS011;41676;44.610;44.078;2024-03-07T10:44:57;30.08;;;21.67;;
55756;SDS011;41676;44.610;44.078;2024-03-07T10:50:14;32.03;;;22.23;;
55756;SDS011;41676;44.610;44.078;2024-03-07T10:55:24;29.45;;;20.40;;
55756;SDS011;41676;44.610;44.078;2024-03-07T11:00:33;28.90;;;19.05;;
55756;SDS011;41676;44.610;44.078;2024-03-07T11:05:39;26.95;;;19.88;;
55756;SDS011;41676;44.610;44.078;2024-03-07T11:10:43;29.85;;;22.63;;
55756;SDS011;41676;44.610;44.078;2024-03-07T11:15:48;31.50;;;23.38;;
55756;SDS011;41676;44.610;44.078;2024-03-07T11:20:50;35.33;;;22.60;;
55756;SDS011;41676;44.610;44.078;2024-03-07T11:25:50;33.53;;;22.45;;
55756;SDS011;41676;44.610;44.078;2024-03-07T11:30:54;33.10;;;23.20;;
55756;SDS011;41676;44.610;44.078;2024-03-07T11:35:55;46.28;;;28.50;;
55756;SDS011;41676;44.610;44.078;2024-03-07T11:41:01;35.08;;;23.92;;
55756;SDS011;41676;44.610;44.078;2024-03-07T11:46:02;42.72;;;27.20;;
55756;SDS011;41676;44.610;44.078;2024-03-07T11:51:17;34.88;;;24.45;;
55756;SDS011;41676;44.610;44.078;2024-03-07T11:56:18;39.58;;;27.17;;
55756;SDS011;41676;44.610;44.078;2024-03-07T12:01:20;35.95;;;25.02;;
55756;SDS011;41676;44.610;44.078;2024-03-07T12:06:25;35.70;;;23.48;;
55756;SDS011;41676;44.610;44.078;2024-03-07T12:11:25;32.95;;;23.38;;
55756;SDS011;41676;44.610;44.078;2024-03-07T12:16:28;30.98;;;21.42;;
55756;SDS011;41676;44.610;44.078;2024-03-07T12:21:29;36.78;;;25.45;;
55756;SDS011;41676;44.610;44.078;2024-03-07T12:26:31;34.67;;;21.38;;
55756;SDS011;41676;44.610;44.078;2024-03-07T12:31:31;30.80;;;21.88;;
55756;SDS011;41676;44.610;44.078;2024-03-07T12:36:37;30.40;;;20.55;;
55756;SDS011;41676;44.610;44.078;2024-03-07T12:41:47;35.03;;;23.02;;
55756;SDS011;41676;44.610;44.078;2024-03-07T12:46:48;37.03;;;22.85;;
55756;SDS011;41676;44.610;44.078;2024-03-07T12:51:56;33.08;;;22.30;;
55756;SDS011;41676;44.610;44.078;2024-03-07T12:56:59;32.78;;;22.88;;
55756;SDS011;41676;44.610;44.078;2024-03-07T13:02:00;31.77;;;22.40;;
55756;SDS011;41676;44.610;44.078;2024-03-07T13:07:01;35.35;;;22.90;;
55756;SDS011;41676;44.610;44.078;2024-03-07T13:12:04;31.02;;;22.17;;
55756;SDS011;41676;44.610;44.078;2024-03-07T13:17:09;34.13;;;25.42;;
55756;SDS011;41676;44.610;44.078;2024-03-07T13:22:10;41.30;;;24.25;;
55756;SDS011;41676;44.610;44.078;2024-03-07T13:27:12;33.42;;;23.92;;
55756;SDS011;41676;44.610;44.078;2024-03-07T13:32:19;41.67;;;27.13;;
55756;SDS011;41676;44.610;44.078;2024-03-07T13:37:20;36.35;;;24.27;;
55756;SDS011;41676;44.610;44.078;2024-03-07T13:42:20;33.90;;;23.88;;
55756;SDS011;41676;44.610;44.078;2024-03-07T13:47:21;36.38;;;23.98;;
55756;SDS011;41676;44.610;44.078;2024-03-07T13:52:22;40.22;;;24.98;;
55756;SDS011;41676;44.610;44.078;2024-03-07T13:57:31;34.47;;;24.83;;
55756;SDS011;41676;44.610;44.078;2024-03-07T14:40:39;37.80;;;27.58;;
55756;SDS011;41676;44.610;44.078;2024-03-07T14:45:40;37.65;;;27.50;;
55756;SDS011;41676;44.610;44.078;2024-03-07T14:50:41;39.10;;;28.48;;
55756;SDS011;41676;44.610;44.078;2024-03-07T14:55:45;41.70;;;29.77;;
55756;SDS011;41676;44.610;44.078;2024-03-07T15:00:46;38.55;;;28.70;;
55756;SDS011;41676;44.610;44.078;2024-03-07T15:05:50;38.50;;;29.40;;
55756;SDS011;41676;44.610;44.078;2024-03-07T15:10:53;40.70;;;30.38;;
55756;SDS011;41676;44.610;44.078;2024-03-07T15:15:59;42.08;;;28.58;;
55756;SDS011;41676;44.610;44.078;2024-03-07T15:21:00;38.97;;;29.50;;
55756;SDS011;41676;44.610;44.078;2024-03-07T15:26:01;39.90;;;29.13;;
55756;SDS011;41676;44.610;44.078;2024-03-07T15:31:03;39.28;;;29.52;;
55756;SDS011;41676;44.610;44.078;2024-03-07T15:36:06;41.10;;;29.75;;
55756;SDS011;41676;44.610;44.078;2024-03-07T15:41:09;42.20;;;30.05;;
55756;SDS011;41676;44.610;44.078;2024-03-07T15:46:12;43.33;;;31.80;;
55756;SDS011;41676;44.610;44.078;2024-03-07T15:51:13;52.38;;;35.40;;
55756;SDS011;41676;44.610;44.078;2024-03-07T15:56:14;52.08;;;37.20;;
55756;SDS011;41676;44.610;44.078;2024-03-07T16:01:16;40.95;;;32.08;;
55756;SDS011;41676;44.610;44.078;2024-03-07T16:06:16;47.08;;;32.58;;
55756;SDS011;41676;44.610;44.078;2024-03-07T16:11:20;50.13;;;35.72;;
55756;SDS011;41676;44.610;44.078;2024-03-07T16:16:24;47.75;;;32.15;;
55756;SDS011;41676;44.610;44.078;2024-03-07T16:21:25;46.72;;;34.70;;
55756;SDS011;41676;44.610;44.078;2024-03-07T16:26:32;42.28;;;32.50;;
55756;SDS011;41676;44.610;44.078;2024-03-07T16:31:33;43.95;;;31.35;;
55756;SDS011;41676;44.610;44.078;2024-03-07T16:36:34;46.35;;;32.85;;
55756;SDS011;41676;44.610;44.078;2024-03-07T16:41:36;45.42;;;31.08;;
55756;SDS011;41676;44.610;44.078;2024-03-07T16:46:37;41.80;;;31.20;;
55756;SDS011;41676;44.610;44.078;2024-03-07T16:51:38;47.20;;;31.98;;
55756;SDS011;41676;44.610;44.078;2024-03-07T16:56:39;40.70;;;30.50;;
55756;SDS011;41676;44.610;44.078;2024-03-07T17:01:41;39.95;;;30.77;;
55756;SDS011;41676;44.610;44.078;2024-03-07T17:06:45;43.53;;;30.80;;
55756;SDS011;41676;44.610;44.078;2024-03-07T17:11:45;41.67;;;31.45;;
55756;SDS011;41676;44.610;44.078;2024-03-07T17:16:46;40.50;;;30.90;;
55756;SDS011;41676;44.610;44.078;2024-03-07T17:21:47;45.05;;;32.67;;
55756;SDS011;41676;44.610;44.078;2024-03-07T17:26:51;44.47;;;33.87;;
55756;SDS011;41676;44.610;44.078;2024-03-07T17:31:52;41.10;;;30.63;;
55756;SDS011;41676;44.610;44.078;2024-03-07T17:36:53;41.63;;;31.55;;
55756;SDS011;41676;44.610;44.078;2024-03-07T17:41:54;42.40;;;30.75;;
55756;SDS011;41676;44.610;44.078;2024-03-07T17:46:55;42.90;;;31.55;;
55756;SDS011;41676;44.610;44.078;2024-03-07T17:51:57;44.15;;;31.45;;
55756;SDS011;41676;44.610;44.078;2024-03-07T17:56:58;38.05;;;29.70;;
55756;SDS011;41676;44.610;44.078;2024-03-07T18:01:59;41.33;;;29.75;;
55756;SDS011;41676;44.610;44.078;2024-03-07T18:07:00;42.40;;;30.42;;
55756;SDS011;41676;44.610;44.078;2024-03-07T18:12:01;39.33;;;29.33;;
55756;SDS011;41676;44.610;44.078;2024-03-07T18:17:02;38.05;;;28.60;;
55756;SDS011;41676;44.610;44.078;2024-03-07T18:22:04;41.70;;;30.67;;
55756;SDS011;41676;44.610;44.078;2024-03-07T18:27:06;37.72;;;28.30;;
55756;SDS011;41676;44.610;44.078;2024-03-07T18:32:18;42.35;;;30.20;;
55756;SDS011;41676;44.610;44.078;2024-03-07T18:37:19;37.60;;;28.58;;
55756;SDS011;41676;44.610;44.078;2024-03-07T18:42:22;38.25;;;27.98;;
55756;SDS011;41676;44.610;44.078;2024-03-07T18:47:23;56.63;;;36.00;;
55756;SDS011;41676;44.610;44.078;2024-03-07T18:52:24;49.05;;;32.80;;
55756;SDS011;41676;44.610;44.078;2024-03-07T18:57:25;48.17;;;31.42;;
55756;SDS011;41676;44.610;44.078;2024-03-07T19:02:26;38.97;;;30.15;;
55756;SDS011;41676;44.610;44.078;2024-03-07T19:07:27;44.22;;;30.90;;
55756;SDS011;41676;44.610;44.078;2024-03-07T19:12:31;41.15;;;30.08;;
55756;SDS011;41676;44.610;44.078;2024-03-07T19:17:32;42.72;;;31.38;;
55756;SDS011;41676;44.610;44.078;2024-03-07T19:22:33;43.97;;;31.30;;
55756;SDS011;41676;44.610;44.078;2024-03-07T19:27:34;38.60;;;29.25;;
55756;SDS011;41676;44.610;44.078;2024-03-07T19:32:35;43.78;;;30.80;;
55756;SDS011;41676;44.610;44.078;2024-03-07T19:37:36;101.55;;;52.72;;
55756;SDS011;41676;44.610;44.078;2024-03-07T19:42:39;49.70;;;32.70;;
55756;SDS011;41676;44.610;44.078;2024-03-07T19:47:41;47.55;;;31.75;;
55756;SDS011;41676;44.610;44.078;2024-03-07T19:52:42;47.22;;;32.17;;
55756;SDS011;41676;44.610;44.078;2024-03-07T19:57:47;46.63;;;32.58;;
55756;SDS011;41676;44.610;44.078;2024-03-07T20:02:51;40.40;;;29.02;;
55756;SDS011;41676;44.610;44.078;2024-03-07T20:07:52;46.58;;;32.67;;
55756;SDS011;41676;44.610;44.078;2024-03-07T20:12:54;50.17;;;32.90;;
55756;SDS011;41676;44.610;44.078;2024-03-07T20:17:56;46.15;;;32.88;;
55756;SDS011;41676;44.610;44.078;2024-03-07T20:22:57;44.90;;;31.77;;
55756;SDS011;41676;44.610;44.078;2024-03-07T20:27:58;44.28;;;31.05;;
55756;SDS011;41676;44.610;44.078;2024-03-07T20:32:58;41.92;;;29.35;;
55756;SDS011;41676;44.610;44.078;2024-03-07T20:37:59;41.35;;;29.95;;
55756;SDS011;41676;44.610;44.078;2024-03-07T20:43:03;41.13;;;29.10;;
55756;SDS011;41676;44.610;44.078;2024-03-07T20:48:04;46.45;;;30.15;;
55756;SDS011;41676;44.610;44.078;2024-03-07T20:53:11;42.70;;;29.38;;
55756;SDS011;41676;44.610;44.078;2024-03-07T20:58:13;47.15;;;32.65;;
55756;SDS011;41676;44.610;44.078;2024-03-07T21:03:16;44.42;;;31.88;;
55756;SDS011;41676;44.610;44.078;2024-03-07T21:08:22;57.17;;;37.33;;
55756;SDS011;41676;44.610;44.078;2024-03-07T21:13:23;52.90;;;35.10;;
55756;SDS011;41676;44.610;44.078;2024-03-07T21:18:25;46.35;;;33.42;;
55756;SDS011;41676;44.610;44.078;2024-03-07T21:23:27;57.50;;;35.28;;
55756;SDS011;41676;44.610;44.078;2024-03-07T21:28:27;49.92;;;34.58;;
55756;SDS011;41676;44.610;44.078;2024-03-07T21:33:30;55.30;;;35.78;;
55756;SDS011;41676;44.610;44.078;2024-03-07T21:38:31;55.38;;;34.67;;
55756;SDS011;41676;44.610;44.078;2024-03-07T21:43:36;54.05;;;33.42;;
55756;SDS011;41676;44.610;44.078;2024-03-07T21:48:37;54.63;;;33.08;;
55756;SDS011;41676;44.610;44.078;2024-03-07T21:53:37;47.17;;;27.58;;
55756;SDS011;41676;44.610;44.078;2024-03-07T21:58:41;45.63;;;26.85;;
55756;SDS011;41676;44.610;44.078;2024-03-07T22:03:42;41.70;;;23.63;;
55756;SDS011;41676;44.610;44.078;2024-03-07T22:08:43;26.58;;;18.75;;
55756;SDS011;41676;44.610;44.078;2024-03-07T22:13:47;27.23;;;16.77;;
55756;SDS011;41676;44.610;44.078;2024-03-07T22:18:47;18.08;;;12.25;;
55756;SDS011;41676;44.610;44.078;2024-03-07T22:23:48;16.80;;;10.55;;
55756;SDS011;41676;44.610;44.078;2024-03-07T22:28:49;17.85;;;9.27;;
55756;SDS011;41676;44.610;44.078;2024-03-07T22:33:49;11.70;;;7.45;;
55756;SDS011;41676;44.610;44.078;2024-03-07T22:38:50;9.77;;;6.47;;
55756;SDS011;41676;44.610;44.078;2024-03-07T22:43:51;10.70;;;6.45;;
55756;SDS011;41676;44.610;44.078;2024-03-07T22:48:52;11.98;;;6.82;;
55756;SDS011;41676;44.610;44.078;2024-03-07T22:53:53;11.45;;;6.25;;
55756;SDS011;41676;44.610;44.078;2024-03-07T22:58:54;11.07;;;6.97;;
55756;SDS011;41676;44.610;44.078;2024-03-07T23:03:55;8.98;;;6.32;;
55756;SDS011;41676;44.610;44.078;2024-03-07T23:08:56;10.02;;;6.47;;
55756;SDS011;41676;44.610;44.078;2024-03-07T23:13:57;8.82;;;5.85;;
55756;SDS011;41676;44.610;44.078;2024-03-07T23:19:00;9.75;;;6.00;;
55756;SDS011;41676;44.610;44.078;2024-03-07T23:24:01;9.63;;;6.28;;
55756;SDS011;41676;44.610;44.078;2024-03-07T23:29:01;10.23;;;7.05;;
55756;SDS011;41676;44.610;44.078;2024-03-07T23:34:02;12.05;;;6.78;;
55756;SDS011;41676;44.610;44.078;2024-03-07T23:39:03;10.32;;;6.38;;
55756;SDS011;41676;44.610;44.078;2024-03-07T23:44:05;11.48;;;7.40;;
55756;SDS011;41676;44.610;44.078;2024-03-07T23:49:06;30.17;;;11.07;;
55756;SDS011;41676;44.610;44.078;2024-03-07T23:54:07;46.53;;;19.63;;
55756;SDS011;41676;44.610;44.078;2024-03-07T23:59:07;28.25;;;12.23;;
